createdAt,value
2023-04-21T00:02:16.331Z,8.18
2023-04-21T00:04:47.389Z,11.98
2023-04-21T00:07:16.217Z,8.05
2023-04-21T00:09:44.078Z,5.20
2023-04-21T00:12:12.197Z,7.00
2023-04-21T00:14:40.243Z,8.13
2023-04-21T00:17:07.902Z,9.13
2023-04-21T00:19:36.046Z,7.72
2023-04-21T00:22:04.752Z,8.55
2023-04-21T00:24:33.509Z,8.10
2023-04-21T00:27:04.226Z,7.63
2023-04-21T00:29:31.949Z,6.03
2023-04-21T00:32:00.986Z,6.47
2023-04-21T00:34:31.723Z,7.20
2023-04-21T00:36:59.540Z,5.65
2023-04-21T00:39:28.292Z,9.35
2023-04-21T00:41:56.179Z,7.47
2023-04-21T00:44:24.999Z,6.35
2023-04-21T00:46:52.868Z,6.00
2023-04-21T00:49:25.799Z,8.65
2023-04-21T00:51:54.889Z,9.00
2023-04-21T00:54:24.884Z,8.23
2023-04-21T00:56:55.524Z,5.38
2023-04-21T00:59:23.415Z,6.40
2023-04-21T01:01:53.126Z,7.25
2023-04-21T01:04:22.465Z,6.03
2023-04-21T01:06:52.502Z,5.60
2023-04-21T01:09:21.928Z,7.55
2023-04-21T01:12:10.538Z,7.10
2023-04-21T01:14:40.124Z,6.55
2023-04-21T01:17:08.907Z,7.35
2023-04-21T01:19:42.603Z,7.13
2023-04-21T01:22:12.582Z,7.28
2023-04-21T01:24:41.890Z,5.47
2023-04-21T01:27:15.242Z,6.07
2023-04-21T01:29:43.835Z,6.88
2023-04-21T01:32:14.633Z,6.40
2023-04-21T01:34:43.207Z,7.70
2023-04-21T01:37:14.412Z,9.07
2023-04-21T01:39:45.261Z,7.63
2023-04-21T01:42:13.609Z,8.93
2023-04-21T01:44:42.902Z,6.22
2023-04-21T01:47:11.594Z,8.38
2023-04-21T01:49:40.674Z,7.38
2023-04-21T01:52:08.725Z,5.60
2023-04-21T01:54:37.691Z,7.68
2023-04-21T01:57:07.058Z,7.40
2023-04-21T01:59:34.978Z,7.32
2023-04-21T02:02:04.029Z,8.82
2023-04-21T02:04:34.647Z,9.45
2023-04-21T02:07:02.796Z,6.07
2023-04-21T02:09:31.352Z,7.50
2023-04-21T02:11:59.247Z,9.82
2023-04-21T02:14:28.258Z,6.57
2023-04-21T02:16:56.477Z,5.80
2023-04-21T02:19:24.739Z,6.72
2023-04-21T02:21:52.456Z,6.90
2023-04-21T02:24:22.859Z,6.60
2023-04-21T02:26:50.580Z,9.73
2023-04-21T02:29:18.576Z,5.15
2023-04-21T02:31:58.776Z,8.23
2023-04-21T02:34:28.953Z,10.05
2023-04-21T02:36:56.909Z,9.57
2023-04-21T02:39:24.703Z,7.20
2023-04-21T02:41:52.485Z,4.70
2023-04-21T02:44:21.803Z,7.13
2023-04-21T02:46:49.593Z,6.72
2023-04-21T02:49:17.692Z,10.85
2023-04-21T02:51:45.727Z,6.70
2023-04-21T02:54:13.720Z,9.07
2023-04-21T02:56:41.411Z,10.95
2023-04-21T02:59:09.126Z,8.25
2023-04-21T03:01:36.766Z,8.48
2023-04-21T03:04:04.971Z,8.77
2023-04-21T03:06:33.895Z,9.52
2023-04-21T03:09:01.701Z,9.30
2023-04-21T03:11:29.964Z,7.85
2023-04-21T03:13:57.763Z,10.82
2023-04-21T03:16:25.570Z,8.52
2023-04-21T03:18:53.671Z,9.02
2023-04-21T03:21:21.510Z,7.57
2023-04-21T03:23:49.293Z,6.63
2023-04-21T03:26:17.058Z,8.38
2023-04-21T03:28:44.925Z,9.43
2023-04-21T03:31:14.108Z,8.85
2023-04-21T03:33:41.956Z,5.85
2023-04-21T03:36:09.926Z,8.95
2023-04-21T03:38:39.304Z,8.38
2023-04-21T03:41:08.233Z,9.60
2023-04-21T03:43:36.644Z,7.05
2023-04-21T03:46:04.718Z,5.85
2023-04-21T03:48:32.432Z,7.93
2023-04-21T03:51:00.145Z,7.38
2023-04-21T03:53:28.260Z,8.50
2023-04-21T03:55:55.927Z,7.57
2023-04-21T03:58:23.581Z,7.03
2023-04-21T04:00:51.360Z,7.88
2023-04-21T04:03:21.730Z,7.40
2023-04-21T04:05:51.036Z,8.80
2023-04-21T04:08:19.250Z,5.25
2023-04-21T04:10:47.017Z,8.18
2023-04-21T04:13:14.830Z,6.47
2023-04-21T04:15:42.853Z,7.18
2023-04-21T04:18:10.871Z,9.07
2023-04-21T04:20:38.640Z,5.57
2023-04-21T04:23:08.156Z,7.20
2023-04-21T04:25:37.537Z,5.45
2023-04-21T04:28:12.871Z,10.85
2023-04-21T04:30:40.706Z,7.93
2023-04-21T04:33:09.332Z,8.95
2023-04-21T04:35:37.162Z,10.05
2023-04-21T04:38:05.019Z,8.95
2023-04-21T04:40:33.948Z,10.80
2023-04-21T04:43:02.771Z,8.68
2023-04-21T04:45:33.272Z,9.82
2023-04-21T04:48:01.147Z,8.73
2023-04-21T04:50:28.883Z,10.27
2023-04-21T04:52:57.820Z,9.88
2023-04-21T04:55:26.191Z,7.53
2023-04-21T04:57:53.992Z,9.68
2023-04-21T05:00:22.109Z,6.88
2023-04-21T05:02:49.959Z,6.13
2023-04-21T05:05:17.785Z,8.07
2023-04-21T05:07:45.980Z,7.25
2023-04-21T05:10:14.101Z,6.40
2023-04-21T05:12:41.941Z,4.25
2023-04-21T05:15:10.902Z,12.18
2023-04-21T05:17:38.731Z,8.35
2023-04-21T05:20:08.431Z,9.88
2023-04-21T05:22:41.171Z,9.45
2023-04-21T05:25:12.802Z,8.90
2023-04-21T05:27:44.346Z,9.43
2023-04-21T05:30:12.429Z,11.55
2023-04-21T05:32:40.368Z,10.55
2023-04-21T05:35:08.483Z,15.82
2023-04-21T05:37:36.534Z,8.38
2023-04-21T05:40:04.524Z,11.77
2023-04-21T05:42:32.313Z,8.82
2023-04-21T05:45:00.385Z,8.48
2023-04-21T05:47:28.068Z,10.95
2023-04-21T05:49:55.902Z,10.60
2023-04-21T05:52:23.760Z,12.75
2023-04-21T05:54:51.590Z,11.05
2023-04-21T05:57:19.607Z,11.40
2023-04-21T05:59:47.775Z,8.07
2023-04-21T06:02:15.943Z,10.07
2023-04-21T06:04:48.975Z,11.32
2023-04-21T06:07:20.456Z,11.02
2023-04-21T06:09:52.614Z,8.73
2023-04-21T06:12:20.619Z,9.50
2023-04-21T06:14:48.585Z,10.13
2023-04-21T06:17:18.104Z,9.63
2023-04-21T06:19:45.977Z,8.40
2023-04-21T06:22:16.804Z,8.80
2023-04-21T06:24:44.536Z,6.85
2023-04-21T06:27:16.185Z,11.13
2023-04-21T06:29:44.496Z,7.03
2023-04-21T06:32:12.842Z,8.80
2023-04-21T06:34:40.606Z,8.57
2023-04-21T06:37:08.476Z,9.00
2023-04-21T06:39:36.202Z,7.60
2023-04-21T06:42:04.213Z,9.85
2023-04-21T06:44:32.583Z,7.53
2023-04-21T06:47:00.372Z,7.93
2023-04-21T06:49:28.466Z,8.38
2023-04-21T06:51:56.575Z,7.68
2023-04-21T06:54:24.300Z,7.72
2023-04-21T06:56:52.504Z,6.90
2023-04-21T06:59:20.727Z,7.18
2023-04-21T07:01:52.606Z,9.40
2023-04-21T07:04:22.178Z,7.70
2023-04-21T07:06:50.107Z,5.07
2023-04-21T07:09:18.537Z,4.15
2023-04-21T07:11:46.725Z,8.65
2023-04-21T07:14:14.592Z,7.35
2023-04-21T07:16:42.471Z,7.85
2023-04-21T07:19:10.476Z,9.98
2023-04-21T07:21:38.263Z,7.38
2023-04-21T07:24:06.270Z,7.45
2023-04-21T07:26:34.497Z,8.23
2023-04-21T07:29:02.241Z,8.05
2023-04-21T07:31:30.025Z,7.72
2023-04-21T07:33:58.974Z,10.05
2023-04-21T07:36:30.553Z,8.77
2023-04-21T07:38:58.874Z,9.73
2023-04-21T07:41:27.169Z,9.52
2023-04-21T07:43:55.662Z,6.82
2023-04-21T07:46:26.129Z,8.43
2023-04-21T07:48:53.920Z,7.57
2023-04-21T07:51:21.992Z,7.93
2023-04-21T07:53:50.770Z,9.10
2023-04-21T07:56:18.734Z,9.13
2023-04-21T07:58:46.716Z,8.82
2023-04-21T08:01:15.858Z,9.52
2023-04-21T08:03:44.043Z,6.85
2023-04-21T08:06:12.360Z,9.65
2023-04-21T08:08:40.252Z,8.23
2023-04-21T08:11:09.766Z,9.68
2023-04-21T08:13:38.864Z,10.98
2023-04-21T08:16:06.888Z,10.15
2023-04-21T08:18:34.895Z,8.75
2023-04-21T08:21:02.707Z,8.35
2023-04-21T08:23:33.153Z,10.13
2023-04-21T08:26:03.914Z,9.02
2023-04-21T08:28:31.607Z,8.48
2023-04-21T08:31:00.615Z,9.13
2023-04-21T08:33:28.749Z,8.90
2023-04-21T08:36:05.584Z,8.15
2023-04-21T08:38:35.780Z,14.48
2023-04-21T08:41:04.559Z,9.43
2023-04-21T08:43:33.682Z,9.82
2023-04-21T08:46:06.427Z,11.20
2023-04-21T08:48:39.454Z,10.45
2023-04-21T08:51:12.066Z,10.68
2023-04-21T08:53:41.483Z,9.70
2023-04-21T08:56:11.664Z,10.15
2023-04-21T08:58:39.714Z,10.43
2023-04-21T09:01:07.869Z,9.98
2023-04-21T09:03:35.830Z,12.07
2023-04-21T09:06:09.412Z,10.13
2023-04-21T09:08:42.287Z,9.68
2023-04-21T09:11:14.394Z,9.05
2023-04-21T09:13:43.383Z,11.88
2023-04-21T09:16:22.529Z,7.00
2023-04-21T09:18:51.727Z,9.52
2023-04-21T09:21:20.607Z,8.13
2023-04-21T09:23:52.777Z,11.98
2023-04-21T09:26:24.761Z,11.48
2023-04-21T09:28:53.419Z,8.48
2023-04-21T09:31:26.133Z,8.23
2023-04-21T09:33:59.576Z,8.30
2023-04-21T09:36:31.100Z,12.15
2023-04-21T09:41:34.783Z,9.63
2023-04-21T09:44:05.507Z,8.48
2023-04-21T09:46:36.121Z,10.38
2023-04-21T09:49:04.989Z,7.47
2023-04-21T09:54:28.555Z,8.60
2023-04-21T09:57:04.923Z,6.90
2023-04-21T09:59:36.564Z,6.82
2023-04-21T10:02:06.255Z,8.13
2023-04-21T10:04:36.568Z,7.22
2023-04-21T10:07:05.535Z,7.40
2023-04-21T10:09:46.868Z,7.65
2023-04-21T10:12:16.049Z,8.13
2023-04-21T10:14:44.216Z,9.00
2023-04-21T10:17:12.283Z,7.43
2023-04-21T10:19:49.785Z,8.48
2023-04-21T10:22:30.723Z,6.88
2023-04-21T10:25:00.450Z,9.32
2023-04-21T10:27:36.239Z,9.30
2023-04-21T10:30:22.523Z,9.38
2023-04-21T10:33:05.033Z,11.43
2023-04-21T10:35:57.999Z,10.57
2023-04-21T10:38:41.070Z,7.95
2023-04-21T10:41:28.328Z,25.92
2023-04-21T10:44:14.630Z,42.88
2023-04-21T10:46:48.556Z,30.90
2023-04-21T10:49:26.702Z,22.17
2023-04-21T10:52:05.610Z,17.13
2023-04-21T10:54:42.212Z,14.80
2023-04-21T10:57:12.248Z,12.57
2023-04-21T10:59:40.978Z,15.10
2023-04-21T11:02:14.353Z,14.80
2023-04-21T11:04:48.429Z,11.52
2023-04-21T11:07:23.242Z,10.98
2023-04-21T11:10:08.378Z,12.52
2023-04-21T11:12:41.035Z,11.45
2023-04-21T11:15:11.344Z,6.30
2023-04-21T11:17:43.994Z,8.23
2023-04-21T11:20:11.979Z,5.88
2023-04-21T11:22:40.215Z,7.93
2023-04-21T11:25:18.597Z,12.38
2023-04-21T11:27:57.236Z,9.55
2023-04-21T11:30:35.644Z,7.90
2023-04-21T11:33:03.666Z,6.22
2023-04-21T11:35:32.205Z,9.52
2023-04-21T11:38:06.081Z,7.60
2023-04-21T11:40:50.022Z,9.70
2023-04-21T11:43:18.371Z,8.35
2023-04-21T11:45:50.065Z,5.65
2023-04-21T11:48:19.795Z,13.02
2023-04-21T11:50:49.859Z,25.58
2023-04-21T11:53:20.239Z,29.58
2023-04-21T11:55:48.149Z,23.63
2023-04-21T11:58:18.128Z,19.33
2023-04-21T12:00:46.696Z,12.95
2023-04-21T12:03:15.065Z,14.35
2023-04-21T12:05:45.699Z,17.63
2023-04-21T12:08:16.302Z,17.00
2023-04-21T12:10:50.949Z,19.25
2023-04-21T12:13:28.786Z,16.65
2023-04-21T12:15:59.390Z,16.17
2023-04-21T12:18:32.748Z,11.90
2023-04-21T12:21:03.598Z,11.63
2023-04-21T12:23:31.522Z,10.65
2023-04-21T12:25:59.821Z,9.52
2023-04-21T12:28:29.678Z,9.25
2023-04-21T12:30:57.395Z,10.35
2023-04-21T12:33:25.350Z,9.18
2023-04-21T12:35:53.354Z,11.35
2023-04-21T12:38:21.789Z,11.52
2023-04-21T12:40:49.691Z,7.28
2023-04-21T12:43:17.500Z,14.02
2023-04-21T12:45:49.168Z,11.23
2023-04-21T12:48:19.760Z,13.43
2023-04-21T12:50:47.855Z,12.93
2023-04-21T12:53:15.967Z,10.00
2023-04-21T12:55:56.847Z,7.10
2023-04-21T12:58:31.759Z,8.25
2023-04-21T13:00:59.814Z,15.52
2023-04-21T13:03:28.845Z,16.00
2023-04-21T13:05:58.259Z,24.27
2023-04-21T13:08:26.651Z,28.05
2023-04-21T13:10:56.587Z,45.72
2023-04-21T13:13:26.776Z,39.67
2023-04-21T13:15:55.444Z,30.48
2023-04-21T13:18:23.576Z,23.67
2023-04-21T13:20:51.732Z,19.67
2023-04-21T13:23:19.657Z,12.88
2023-04-21T13:25:47.388Z,12.20
2023-04-21T13:28:15.284Z,10.23
2023-04-21T13:30:43.294Z,11.40
2023-04-21T13:33:12.009Z,7.78
2023-04-21T13:35:39.876Z,7.28
2023-04-21T13:38:07.901Z,11.20
2023-04-21T13:40:35.815Z,8.85
2023-04-21T13:43:04.038Z,16.25
2023-04-21T13:45:31.906Z,18.23
2023-04-21T13:48:00.184Z,17.63
2023-04-21T13:50:28.129Z,14.75
2023-04-21T13:52:56.024Z,15.15
2023-04-21T13:55:37.903Z,15.13
2023-04-21T13:58:06.920Z,12.52
2023-04-21T14:00:35.123Z,15.23
2023-04-21T14:03:03.502Z,12.73
2023-04-21T14:05:31.843Z,16.23
2023-04-21T14:08:00.627Z,11.65
2023-04-21T14:10:28.943Z,9.15
2023-04-21T14:12:57.061Z,9.65
2023-04-21T14:15:26.592Z,8.15
2023-04-21T14:17:54.724Z,8.88
2023-04-21T14:20:23.092Z,7.47
2023-04-21T14:22:51.261Z,10.50
2023-04-21T14:25:20.968Z,10.98
2023-04-21T14:27:49.196Z,9.05
2023-04-21T14:30:17.201Z,11.32
2023-04-21T14:32:45.897Z,11.05
2023-04-21T14:35:14.625Z,10.07
2023-04-21T14:37:42.906Z,9.20
2023-04-21T14:40:11.304Z,10.13
2023-04-21T14:42:39.267Z,7.53
2023-04-21T14:45:08.273Z,10.68
2023-04-21T14:47:40.380Z,9.40
2023-04-21T14:50:09.026Z,6.13
2023-04-21T14:52:40.044Z,7.72
2023-04-21T14:55:08.403Z,8.57
2023-04-21T14:57:36.368Z,6.95
2023-04-21T15:00:06.182Z,8.75
2023-04-21T15:02:34.379Z,8.05
2023-04-21T15:05:02.279Z,10.23
2023-04-21T15:07:30.080Z,6.13
2023-04-21T15:10:00.943Z,6.75
2023-04-21T15:12:29.871Z,8.80
2023-04-21T15:14:57.737Z,6.80
2023-04-21T15:17:25.656Z,7.75
2023-04-21T15:19:53.540Z,7.78
2023-04-21T15:22:21.628Z,9.82
2023-04-21T15:24:52.222Z,9.27
2023-04-21T15:27:23.437Z,12.05
2023-04-21T15:29:51.350Z,7.13
2023-04-21T15:32:19.762Z,8.82
2023-04-21T15:34:47.691Z,8.15
2023-04-21T15:37:17.878Z,9.48
2023-04-21T15:39:45.747Z,8.18
2023-04-21T15:42:14.886Z,7.05
2023-04-21T15:44:42.861Z,8.13
2023-04-21T15:47:10.656Z,5.53
2023-04-21T15:49:38.631Z,8.45
2023-04-21T15:52:07.230Z,5.28
2023-04-21T15:54:35.857Z,9.32
2023-04-21T15:57:04.185Z,7.78
2023-04-21T15:59:32.445Z,5.45
2023-04-21T16:02:00.515Z,9.93
2023-04-21T16:04:28.717Z,8.40
2023-04-21T16:06:56.700Z,7.30
2023-04-21T16:09:24.477Z,7.63
2023-04-21T16:11:52.298Z,10.25
2023-04-21T16:14:21.511Z,7.65
2023-04-21T16:16:50.535Z,9.90
2023-04-21T16:19:18.725Z,9.80
2023-04-21T16:21:46.730Z,9.50
2023-04-21T16:24:14.976Z,6.85
2023-04-21T16:26:42.876Z,6.82
2023-04-21T16:29:11.973Z,9.00
2023-04-21T16:31:39.887Z,14.20
2023-04-21T16:34:07.930Z,12.25
2023-04-21T16:36:36.073Z,9.75
2023-04-21T16:39:03.965Z,8.10
2023-04-21T16:41:32.877Z,6.90
2023-04-21T16:44:00.951Z,5.57
2023-04-21T16:46:28.776Z,7.68
2023-04-21T16:48:56.687Z,8.70
2023-04-21T16:51:26.218Z,8.23
2023-04-21T16:53:54.948Z,7.28
2023-04-21T16:56:24.451Z,7.35
2023-04-21T16:58:53.471Z,11.73
2023-04-21T17:01:21.611Z,11.43
2023-04-21T17:03:49.676Z,5.78
2023-04-21T17:06:21.603Z,5.78
2023-04-21T17:08:49.476Z,6.60
2023-04-21T17:11:17.454Z,7.75
2023-04-21T17:13:45.339Z,7.43
2023-04-21T17:16:14.093Z,6.93
2023-04-21T17:18:41.914Z,9.48
2023-04-21T17:21:09.780Z,5.68
2023-04-21T17:23:37.627Z,8.38
2023-04-21T17:26:06.720Z,6.90
2023-04-21T17:28:35.229Z,10.63
2023-04-21T17:31:14.568Z,8.98
2023-04-21T17:33:44.685Z,14.30
2023-04-21T17:36:12.690Z,9.88
2023-04-21T17:38:42.822Z,10.70
2023-04-21T17:41:10.880Z,14.18
2023-04-21T17:43:38.778Z,9.77
2023-04-21T17:46:10.363Z,8.63
2023-04-21T17:48:39.776Z,12.70
2023-04-21T17:51:07.683Z,8.50
2023-04-21T17:53:36.062Z,9.40
2023-04-21T17:56:04.125Z,11.90
2023-04-21T17:58:32.105Z,11.75
2023-04-21T18:00:59.899Z,15.85
2023-04-21T18:03:28.623Z,15.07
2023-04-21T18:05:56.671Z,13.23
2023-04-21T18:08:25.112Z,13.98
2023-04-21T18:10:54.907Z,11.68
2023-04-21T18:13:22.740Z,13.48
2023-04-21T18:15:50.876Z,11.43
2023-04-21T18:18:18.859Z,13.90
2023-04-21T18:20:47.203Z,13.35
2023-04-21T18:23:31.113Z,10.25
2023-04-21T18:26:00.002Z,11.93
2023-04-21T18:28:29.777Z,20.15
2023-04-21T18:31:01.213Z,28.52
2023-04-21T18:33:29.628Z,32.83
2023-04-21T18:35:58.247Z,66.88
2023-04-21T18:38:26.730Z,66.30
2023-04-21T18:41:07.908Z,57.85
2023-04-21T18:43:37.683Z,47.45
2023-04-21T18:46:06.919Z,43.25
2023-04-21T18:48:34.918Z,37.90
2023-04-21T18:51:03.005Z,24.08
2023-04-21T18:53:31.315Z,19.08
2023-04-21T18:55:59.265Z,16.00
2023-04-21T18:58:27.362Z,15.48
2023-04-21T19:00:56.266Z,17.50
2023-04-21T19:03:25.549Z,15.07
2023-04-21T19:05:53.775Z,18.13
2023-04-21T19:08:38.258Z,16.70
2023-04-21T19:11:14.411Z,16.60
2023-04-21T19:13:42.818Z,14.82
2023-04-21T19:16:12.475Z,12.82
2023-04-21T19:18:46.101Z,14.23
2023-04-21T19:21:15.704Z,12.30
2023-04-21T19:23:46.628Z,14.70
2023-04-21T19:26:22.040Z,12.80
2023-04-21T19:28:49.950Z,11.43
2023-04-21T19:31:23.465Z,11.32
2023-04-21T19:33:52.765Z,13.32
2023-04-21T19:36:24.289Z,13.85
2023-04-21T19:38:55.751Z,14.05
2023-04-21T19:41:24.603Z,16.10
2023-04-21T19:43:52.961Z,13.80
2023-04-21T19:46:21.859Z,15.70
2023-04-21T19:48:50.435Z,13.85
2023-04-21T19:51:19.141Z,15.15
2023-04-21T19:53:51.404Z,13.93
2023-04-21T19:56:33.201Z,12.55
2023-04-21T19:59:06.870Z,13.18
2023-04-21T20:01:36.215Z,13.13
2023-04-21T20:04:09.265Z,10.25
2023-04-21T20:06:40.305Z,8.63
2023-04-21T20:09:19.220Z,10.48
2023-04-21T20:11:57.527Z,11.05
2023-04-21T20:14:35.074Z,11.10
2023-04-21T20:17:04.599Z,10.88
2023-04-21T20:19:32.583Z,11.15
2023-04-21T20:22:03.993Z,14.75
2023-04-21T20:24:35.933Z,9.88
2023-04-21T20:27:05.352Z,10.50
2023-04-21T20:29:40.603Z,12.13
2023-04-21T20:32:15.847Z,11.20
2023-04-21T20:34:46.779Z,11.55
2023-04-21T20:37:15.358Z,13.75
2023-04-21T20:39:43.315Z,10.13
2023-04-21T20:42:13.519Z,13.50
2023-04-21T20:44:43.619Z,12.30
2023-04-21T20:47:12.302Z,12.82
2023-04-21T20:49:41.564Z,13.52
2023-04-21T20:52:09.620Z,11.63
2023-04-21T20:54:40.212Z,9.95
2023-04-21T20:57:09.183Z,12.77
2023-04-21T20:59:37.591Z,17.48
2023-04-21T21:02:06.198Z,13.32
2023-04-21T21:04:34.284Z,14.35
2023-04-21T21:07:02.214Z,12.27
2023-04-21T21:09:31.733Z,15.93
2023-04-21T21:11:59.809Z,15.43
2023-04-21T21:14:27.665Z,14.32
2023-04-21T21:16:56.593Z,13.50
2023-04-21T21:19:25.147Z,12.85
2023-04-21T21:21:55.550Z,13.45
2023-04-21T21:24:23.514Z,10.70
2023-04-21T21:26:51.477Z,10.18
2023-04-21T21:29:19.744Z,12.60
2023-04-21T21:31:47.728Z,10.30
2023-04-21T21:34:18.115Z,9.90
2023-04-21T21:36:46.064Z,11.82
2023-04-21T21:39:15.209Z,15.45
2023-04-21T21:41:43.907Z,12.65
2023-04-21T21:44:11.783Z,12.43
2023-04-21T21:46:43.737Z,12.27
2023-04-21T21:49:11.794Z,11.50
2023-04-21T21:51:39.745Z,12.77
2023-04-21T21:54:07.852Z,15.73
2023-04-21T21:56:39.852Z,10.68
2023-04-21T21:59:10.132Z,13.70
2023-04-21T22:01:39.467Z,13.82
2023-04-21T22:04:07.744Z,14.18
2023-04-21T22:06:36.360Z,17.33
2023-04-21T22:09:05.480Z,14.60
2023-04-21T22:11:33.754Z,16.35
2023-04-21T22:14:14.511Z,15.80
2023-04-21T22:19:19.605Z,14.82
2023-04-21T22:21:47.927Z,15.65
2023-04-21T22:24:15.955Z,13.13
2023-04-21T22:26:44.937Z,16.27
2023-04-21T22:29:13.176Z,14.63
2023-04-21T22:31:42.635Z,15.98
2023-04-21T22:34:13.132Z,13.18
2023-04-21T22:36:41.392Z,14.90
2023-04-21T22:39:09.655Z,13.68
2023-04-21T22:41:38.825Z,15.00
2023-04-21T22:44:06.730Z,11.90
2023-04-21T22:46:34.912Z,14.02
2023-04-21T22:49:04.162Z,15.63
2023-04-21T22:51:35.676Z,11.77
2023-04-21T22:54:03.874Z,10.60
2023-04-21T22:56:33.029Z,12.68
2023-04-21T22:59:01.088Z,12.68
2023-04-21T23:01:29.455Z,12.68
2023-04-21T23:03:57.788Z,13.93
2023-04-21T23:06:25.830Z,12.45
2023-04-21T23:08:53.771Z,10.85
2023-04-21T23:11:21.806Z,11.82
2023-04-21T23:13:49.954Z,11.35
2023-04-21T23:16:19.834Z,13.18
2023-04-21T23:18:47.787Z,12.20
2023-04-21T23:21:15.717Z,11.90
2023-04-21T23:23:43.548Z,10.80
2023-04-21T23:26:15.835Z,11.38
2023-04-21T23:28:43.643Z,11.02
2023-04-21T23:31:14.186Z,13.90
2023-04-21T23:33:42.626Z,11.73
2023-04-21T23:36:10.656Z,11.00
2023-04-21T23:38:38.693Z,13.88
2023-04-21T23:41:08.329Z,15.65
2023-04-21T23:43:37.496Z,10.95
2023-04-21T23:46:05.468Z,17.52
2023-04-21T23:48:34.411Z,9.95
2023-04-21T23:51:02.927Z,10.18
2023-04-21T23:53:30.885Z,10.45
2023-04-21T23:55:59.023Z,12.93
2023-04-21T23:58:27.193Z,14.52
